sensor_id;sensor_type;location;lat;lon;timestamp;temperature;humidity
7598;DHT22;3840;59.32098800;18.06423600;2023-01-08T00:01:43;2.10;99.90
7598;DHT22;3840;59.32098800;18.06423600;2023-01-08T00:04:09;2.10;99.90
7598;DHT22;3840;59.32098800;18.06423600;2023-01-08T00:06:35;2.10;99.90
7598;DHT22;3840;59.32098800;18.06423600;2023-01-08T00:09:01;2.10;99.90
7598;DHT22;3840;59.32098800;18.06423600;2023-01-08T00:11:27;2.10;99.90
7598;DHT22;3840;59.32098800;18.06423600;2023-01-08T00:13:52;2.10;99.90
7598;DHT22;3840;59.32098800;18.06423600;2023-01-08T00:16:18;2.10;99.90
7598;DHT22;3840;59.32098800;18.06423600;2023-01-08T00:18:45;2.10;99.90
7598;DHT22;3840;59.32098800;18.06423600;2023-01-08T00:21:11;2.10;99.90
7598;DHT22;3840;59.32098800;18.06423600;2023-01-08T00:23:37;2.10;99.90
7598;DHT22;3840;59.32098800;18.06423600;2023-01-08T00:26:05;2.20;99.90
7598;DHT22;3840;59.32098800;18.06423600;2023-01-08T00:28:31;2.20;99.90
7598;DHT22;3840;59.32098800;18.06423600;2023-01-08T00:30:58;2.20;99.90
7598;DHT22;3840;59.32098800;18.06423600;2023-01-08T00:33:23;2.20;99.90
7598;DHT22;3840;59.32098800;18.06423600;2023-01-08T00:35:49;2.20;99.90
7598;DHT22;3840;59.32098800;18.06423600;2023-01-08T00:38:15;2.10;99.90
7598;DHT22;3840;59.32098800;18.06423600;2023-01-08T00:40:41;2.20;99.90
7598;DHT22;3840;59.32098800;18.06423600;2023-01-08T00:43:07;2.20;99.90
7598;DHT22;3840;59.32098800;18.06423600;2023-01-08T00:45:33;2.20;99.90
7598;DHT22;3840;59.32098800;18.06423600;2023-01-08T00:47:58;2.20;99.90
7598;DHT22;3840;59.32098800;18.06423600;2023-01-08T00:50:25;2.20;99.90
7598;DHT22;3840;59.32098800;18.06423600;2023-01-08T00:52:50;2.20;99.90
7598;DHT22;3840;59.32098800;18.06423600;2023-01-08T00:55:17;2.20;99.90
7598;DHT22;3840;59.32098800;18.06423600;2023-01-08T00:57:43;2.20;99.90
7598;DHT22;3840;59.32098800;18.06423600;2023-01-08T01:00:12;2.30;99.90
7598;DHT22;3840;59.32098800;18.06423600;2023-01-08T01:02:39;2.30;99.90
7598;DHT22;3840;59.32098800;18.06423600;2023-01-08T01:05:05;2.30;99.90
7598;DHT22;3840;59.32098800;18.06423600;2023-01-08T01:07:33;2.30;99.90
7598;DHT22;3840;59.32098800;18.06423600;2023-01-08T01:09:59;2.30;99.90
7598;DHT22;3840;59.32098800;18.06423600;2023-01-08T01:12:24;2.30;99.90
7598;DHT22;3840;59.32098800;18.06423600;2023-01-08T01:14:50;2.30;99.90
7598;DHT22;3840;59.32098800;18.06423600;2023-01-08T01:17:16;2.30;99.90
7598;DHT22;3840;59.32098800;18.06423600;2023-01-08T01:19:42;2.30;99.90
7598;DHT22;3840;59.32098800;18.06423600;2023-01-08T01:22:08;2.30;99.90
7598;DHT22;3840;59.32098800;18.06423600;2023-01-08T01:24:33;2.20;99.90
7598;DHT22;3840;59.32098800;18.06423600;2023-01-08T01:26:59;2.30;99.90
7598;DHT22;3840;59.32098800;18.06423600;2023-01-08T01:29:25;2.30;99.90
7598;DHT22;3840;59.32098800;18.06423600;2023-01-08T01:31:51;2.30;99.90
7598;DHT22;3840;59.32098800;18.06423600;2023-01-08T01:34:16;2.30;99.90
7598;DHT22;3840;59.32098800;18.06423600;2023-01-08T01:36:42;2.30;99.90
7598;DHT22;3840;59.32098800;18.06423600;2023-01-08T01:39:08;2.30;99.90
7598;DHT22;3840;59.32098800;18.06423600;2023-01-08T01:41:40;2.30;99.90
7598;DHT22;3840;59.32098800;18.06423600;2023-01-08T01:44:42;2.30;99.90
7598;DHT22;3840;59.32098800;18.06423600;2023-01-08T01:47:33;2.30;99.90
7598;DHT22;3840;59.32098800;18.06423600;2023-01-08T01:52:39;2.30;99.90
7598;DHT22;3840;59.32098800;18.06423600;2023-01-08T01:55:07;2.40;99.90
7598;DHT22;3840;59.32098800;18.06423600;2023-01-08T01:57:33;2.30;99.90
7598;DHT22;3840;59.32098800;18.06423600;2023-01-08T02:00:00;2.30;99.90
7598;DHT22;3840;59.32098800;18.06423600;2023-01-08T02:02:29;2.30;99.90
7598;DHT22;3840;59.32098800;18.06423600;2023-01-08T02:04:57;2.40;99.90
7598;DHT22;3840;59.32098800;18.06423600;2023-01-08T02:07:55;2.50;99.90
7598;DHT22;3840;59.32098800;18.06423600;2023-01-08T02:10:53;2.40;99.90
7598;DHT22;3840;59.32098800;18.06423600;2023-01-08T02:13:30;2.40;99.90
7598;DHT22;3840;59.32098800;18.06423600;2023-01-08T02:16:02;2.40;99.90
7598;DHT22;3840;59.32098800;18.06423600;2023-01-08T02:18:36;2.40;99.90
7598;DHT22;3840;59.32098800;18.06423600;2023-01-08T02:21:08;2.50;99.90
7598;DHT22;3840;59.32098800;18.06423600;2023-01-08T02:26:32;2.50;99.90
7598;DHT22;3840;59.32098800;18.06423600;2023-01-08T02:31:30;2.60;99.90
7598;DHT22;3840;59.32098800;18.06423600;2023-01-08T02:33:56;2.60;99.90
7598;DHT22;3840;59.32098800;18.06423600;2023-01-08T02:36:43;2.60;99.90
7598;DHT22;3840;59.32098800;18.06423600;2023-01-08T02:47:03;2.60;99.90
7598;DHT22;3840;59.32098800;18.06423600;2023-01-08T02:49:31;2.60;99.90
7598;DHT22;3840;59.32098800;18.06423600;2023-01-08T02:52:01;2.60;99.90
7598;DHT22;3840;59.32098800;18.06423600;2023-01-08T02:54:31;2.60;99.90
7598;DHT22;3840;59.32098800;18.06423600;2023-01-08T02:57:05;2.60;99.90
7598;DHT22;3840;59.32098800;18.06423600;2023-01-08T02:59:33;2.60;99.90
7598;DHT22;3840;59.32098800;18.06423600;2023-01-08T03:02:00;2.60;99.90
7598;DHT22;3840;59.32098800;18.06423600;2023-01-08T03:04:30;2.70;99.90
7598;DHT22;3840;59.32098800;18.06423600;2023-01-08T03:06:58;2.70;99.90
7598;DHT22;3840;59.32098800;18.06423600;2023-01-08T03:09:24;2.70;99.90
7598;DHT22;3840;59.32098800;18.06423600;2023-01-08T03:12:05;2.70;99.90
7598;DHT22;3840;59.32098800;18.06423600;2023-01-08T03:14:45;2.70;99.90
7598;DHT22;3840;59.32098800;18.06423600;2023-01-08T03:17:22;2.70;99.90
7598;DHT22;3840;59.32098800;18.06423600;2023-01-08T03:19:54;2.70;99.90
7598;DHT22;3840;59.32098800;18.06423600;2023-01-08T03:22:21;2.70;99.90
7598;DHT22;3840;59.32098800;18.06423600;2023-01-08T03:24:51;2.70;99.90
7598;DHT22;3840;59.32098800;18.06423600;2023-01-08T03:27:23;2.70;99.90
7598;DHT22;3840;59.32098800;18.06423600;2023-01-08T03:29:51;2.80;99.90
7598;DHT22;3840;59.32098800;18.06423600;2023-01-08T03:32:19;2.70;99.90
7598;DHT22;3840;59.32098800;18.06423600;2023-01-08T03:34:47;2.70;99.90
7598;DHT22;3840;59.32098800;18.06423600;2023-01-08T03:37:19;2.70;99.90
7598;DHT22;3840;59.32098800;18.06423600;2023-01-08T03:40:08;2.70;99.90
7598;DHT22;3840;59.32098800;18.06423600;2023-01-08T03:42:34;2.70;99.90
7598;DHT22;3840;59.32098800;18.06423600;2023-01-08T03:45:00;2.80;99.90
7598;DHT22;3840;59.32098800;18.06423600;2023-01-08T03:47:28;2.80;99.90
7598;DHT22;3840;59.32098800;18.06423600;2023-01-08T03:49:58;2.80;99.90
7598;DHT22;3840;59.32098800;18.06423600;2023-01-08T03:52:27;2.80;99.90
7598;DHT22;3840;59.32098800;18.06423600;2023-01-08T03:54:53;2.80;99.90
7598;DHT22;3840;59.32098800;18.06423600;2023-01-08T03:57:19;2.80;99.90
7598;DHT22;3840;59.32098800;18.06423600;2023-01-08T03:59:45;2.80;99.90
7598;DHT22;3840;59.32098800;18.06423600;2023-01-08T04:02:11;2.90;99.90
7598;DHT22;3840;59.32098800;18.06423600;2023-01-08T04:04:37;2.90;99.90
7598;DHT22;3840;59.32098800;18.06423600;2023-01-08T04:07:03;2.80;99.90
7598;DHT22;3840;59.32098800;18.06423600;2023-01-08T04:09:29;2.80;99.90
7598;DHT22;3840;59.32098800;18.06423600;2023-01-08T04:11:55;2.80;99.90
7598;DHT22;3840;59.32098800;18.06423600;2023-01-08T04:14:20;2.90;99.90
7598;DHT22;3840;59.32098800;18.06423600;2023-01-08T04:16:46;2.90;99.90
7598;DHT22;3840;59.32098800;18.06423600;2023-01-08T04:19:12;2.90;99.90
7598;DHT22;3840;59.32098800;18.06423600;2023-01-08T04:21:38;2.90;99.90
7598;DHT22;3840;59.32098800;18.06423600;2023-01-08T04:24:04;3.00;99.90
7598;DHT22;3840;59.32098800;18.06423600;2023-01-08T04:26:30;3.00;99.90
7598;DHT22;3840;59.32098800;18.06423600;2023-01-08T04:28:56;3.00;99.90
7598;DHT22;3840;59.32098800;18.06423600;2023-01-08T04:31:22;3.00;99.90
7598;DHT22;3840;59.32098800;18.06423600;2023-01-08T04:33:48;3.20;99.90
7598;DHT22;3840;59.32098800;18.06423600;2023-01-08T04:36:13;3.00;99.90
7598;DHT22;3840;59.32098800;18.06423600;2023-01-08T04:38:39;3.10;99.90
7598;DHT22;3840;59.32098800;18.06423600;2023-01-08T04:41:05;3.10;99.90
7598;DHT22;3840;59.32098800;18.06423600;2023-01-08T04:43:31;3.00;99.90
7598;DHT22;3840;59.32098800;18.06423600;2023-01-08T04:46:01;3.10;99.90
7598;DHT22;3840;59.32098800;18.06423600;2023-01-08T04:48:29;3.10;99.90
7598;DHT22;3840;59.32098800;18.06423600;2023-01-08T04:50:57;3.10;99.90
7598;DHT22;3840;59.32098800;18.06423600;2023-01-08T04:53:23;3.10;99.90
7598;DHT22;3840;59.32098800;18.06423600;2023-01-08T04:55:49;3.10;99.90
7598;DHT22;3840;59.32098800;18.06423600;2023-01-08T04:58:15;3.10;99.90
7598;DHT22;3840;59.32098800;18.06423600;2023-01-08T05:00:40;3.10;99.90
7598;DHT22;3840;59.32098800;18.06423600;2023-01-08T05:03:06;3.10;99.90
7598;DHT22;3840;59.32098800;18.06423600;2023-01-08T05:05:33;3.10;99.90
7598;DHT22;3840;59.32098800;18.06423600;2023-01-08T05:07:59;3.10;99.90
7598;DHT22;3840;59.32098800;18.06423600;2023-01-08T05:10:24;3.10;99.90
7598;DHT22;3840;59.32098800;18.06423600;2023-01-08T05:12:50;3.20;99.90
7598;DHT22;3840;59.32098800;18.06423600;2023-01-08T05:15:16;3.20;99.90
7598;DHT22;3840;59.32098800;18.06423600;2023-01-08T05:17:42;3.20;99.90
7598;DHT22;3840;59.32098800;18.06423600;2023-01-08T05:20:08;3.20;99.90
7598;DHT22;3840;59.32098800;18.06423600;2023-01-08T05:22:34;3.20;99.90
7598;DHT22;3840;59.32098800;18.06423600;2023-01-08T05:25:00;3.20;99.90
7598;DHT22;3840;59.32098800;18.06423600;2023-01-08T05:27:27;3.20;99.90
7598;DHT22;3840;59.32098800;18.06423600;2023-01-08T05:29:53;3.20;99.90
7598;DHT22;3840;59.32098800;18.06423600;2023-01-08T05:32:19;3.20;99.90
7598;DHT22;3840;59.32098800;18.06423600;2023-01-08T05:34:45;3.20;99.90
7598;DHT22;3840;59.32098800;18.06423600;2023-01-08T05:37:11;3.20;99.90
7598;DHT22;3840;59.32098800;18.06423600;2023-01-08T05:39:37;3.20;99.90
7598;DHT22;3840;59.32098800;18.06423600;2023-01-08T05:42:03;3.20;99.90
7598;DHT22;3840;59.32098800;18.06423600;2023-01-08T05:44:29;3.20;99.90
7598;DHT22;3840;59.32098800;18.06423600;2023-01-08T05:46:55;3.20;99.90
7598;DHT22;3840;59.32098800;18.06423600;2023-01-08T05:49:22;3.20;99.90
7598;DHT22;3840;59.32098800;18.06423600;2023-01-08T05:51:48;3.20;99.90
7598;DHT22;3840;59.32098800;18.06423600;2023-01-08T05:54:14;3.20;99.90
7598;DHT22;3840;59.32098800;18.06423600;2023-01-08T05:56:40;3.20;99.90
7598;DHT22;3840;59.32098800;18.06423600;2023-01-08T05:59:10;3.20;99.90
7598;DHT22;3840;59.32098800;18.06423600;2023-01-08T06:01:36;3.20;99.90
7598;DHT22;3840;59.32098800;18.06423600;2023-01-08T06:04:02;3.20;99.90
7598;DHT22;3840;59.32098800;18.06423600;2023-01-08T06:06:27;3.30;99.90
7598;DHT22;3840;59.32098800;18.06423600;2023-01-08T06:08:53;3.30;99.90
7598;DHT22;3840;59.32098800;18.06423600;2023-01-08T06:11:19;3.20;99.90
7598;DHT22;3840;59.32098800;18.06423600;2023-01-08T06:13:45;3.30;99.90
7598;DHT22;3840;59.32098800;18.06423600;2023-01-08T06:16:11;3.30;99.90
7598;DHT22;3840;59.32098800;18.06423600;2023-01-08T06:18:37;3.30;99.90
7598;DHT22;3840;59.32098800;18.06423600;2023-01-08T06:21:03;3.30;99.90
7598;DHT22;3840;59.32098800;18.06423600;2023-01-08T06:23:30;3.30;99.90
7598;DHT22;3840;59.32098800;18.06423600;2023-01-08T06:25:58;3.30;99.90
7598;DHT22;3840;59.32098800;18.06423600;2023-01-08T06:28:24;3.30;99.90
7598;DHT22;3840;59.32098800;18.06423600;2023-01-08T06:30:50;3.30;99.90
7598;DHT22;3840;59.32098800;18.06423600;2023-01-08T06:33:17;3.30;99.90
7598;DHT22;3840;59.32098800;18.06423600;2023-01-08T06:35:43;3.30;99.90
7598;DHT22;3840;59.32098800;18.06423600;2023-01-08T06:38:09;3.30;99.90
7598;DHT22;3840;59.32098800;18.06423600;2023-01-08T06:40:35;3.30;99.90
7598;DHT22;3840;59.32098800;18.06423600;2023-01-08T06:43:02;3.30;99.90
7598;DHT22;3840;59.32098800;18.06423600;2023-01-08T06:45:28;3.30;99.90
7598;DHT22;3840;59.32098800;18.06423600;2023-01-08T06:47:53;3.30;99.90
7598;DHT22;3840;59.32098800;18.06423600;2023-01-08T06:50:19;3.30;99.90
7598;DHT22;3840;59.32098800;18.06423600;2023-01-08T06:52:55;3.30;99.90
7598;DHT22;3840;59.32098800;18.06423600;2023-01-08T06:55:22;3.30;99.90
7598;DHT22;3840;59.32098800;18.06423600;2023-01-08T06:57:56;3.30;99.90
7598;DHT22;3840;59.32098800;18.06423600;2023-01-08T07:00:22;3.30;99.90
7598;DHT22;3840;59.32098800;18.06423600;2023-01-08T07:02:49;3.40;99.90
7598;DHT22;3840;59.32098800;18.06423600;2023-01-08T07:05:15;3.30;99.90
7598;DHT22;3840;59.32098800;18.06423600;2023-01-08T07:07:41;3.40;99.90
7598;DHT22;3840;59.32098800;18.06423600;2023-01-08T07:10:07;3.40;99.90
7598;DHT22;3840;59.32098800;18.06423600;2023-01-08T07:12:33;3.40;99.90
7598;DHT22;3840;59.32098800;18.06423600;2023-01-08T07:14:58;3.40;99.90
7598;DHT22;3840;59.32098800;18.06423600;2023-01-08T07:17:24;3.40;99.90
7598;DHT22;3840;59.32098800;18.06423600;2023-01-08T07:19:50;3.40;99.90
7598;DHT22;3840;59.32098800;18.06423600;2023-01-08T07:22:15;3.50;99.90
7598;DHT22;3840;59.32098800;18.06423600;2023-01-08T07:24:41;3.50;99.90
7598;DHT22;3840;59.32098800;18.06423600;2023-01-08T07:27:07;3.50;99.90
7598;DHT22;3840;59.32098800;18.06423600;2023-01-08T07:29:33;3.50;99.90
7598;DHT22;3840;59.32098800;18.06423600;2023-01-08T07:31:59;3.50;99.90
7598;DHT22;3840;59.32098800;18.06423600;2023-01-08T07:34:25;3.50;99.90
7598;DHT22;3840;59.32098800;18.06423600;2023-01-08T07:36:50;3.60;99.90
7598;DHT22;3840;59.32098800;18.06423600;2023-01-08T07:39:16;3.50;99.90
7598;DHT22;3840;59.32098800;18.06423600;2023-01-08T07:41:42;3.50;99.90
7598;DHT22;3840;59.32098800;18.06423600;2023-01-08T07:44:10;3.60;99.90
7598;DHT22;3840;59.32098800;18.06423600;2023-01-08T07:46:35;3.60;99.90
7598;DHT22;3840;59.32098800;18.06423600;2023-01-08T07:49:01;3.70;99.90
7598;DHT22;3840;59.32098800;18.06423600;2023-01-08T07:51:27;3.60;99.90
7598;DHT22;3840;59.32098800;18.06423600;2023-01-08T07:53:54;3.60;99.90
7598;DHT22;3840;59.32098800;18.06423600;2023-01-08T07:56:21;3.70;99.90
7598;DHT22;3840;59.32098800;18.06423600;2023-01-08T07:58:47;3.70;99.90
7598;DHT22;3840;59.32098800;18.06423600;2023-01-08T08:01:13;3.70;99.90
7598;DHT22;3840;59.32098800;18.06423600;2023-01-08T08:03:39;3.70;99.90
7598;DHT22;3840;59.32098800;18.06423600;2023-01-08T08:06:06;3.70;99.90
7598;DHT22;3840;59.32098800;18.06423600;2023-01-08T08:08:32;3.70;99.90
7598;DHT22;3840;59.32098800;18.06423600;2023-01-08T08:10:58;3.70;99.90
7598;DHT22;3840;59.32098800;18.06423600;2023-01-08T08:13:24;3.70;99.90
7598;DHT22;3840;59.32098800;18.06423600;2023-01-08T08:15:49;3.80;99.90
7598;DHT22;3840;59.32098800;18.06423600;2023-01-08T08:18:16;3.80;99.90
7598;DHT22;3840;59.32098800;18.06423600;2023-01-08T08:20:41;3.80;99.90
7598;DHT22;3840;59.32098800;18.06423600;2023-01-08T08:23:09;3.80;99.90
7598;DHT22;3840;59.32098800;18.06423600;2023-01-08T08:25:37;3.80;99.90
7598;DHT22;3840;59.32098800;18.06423600;2023-01-08T08:28:03;3.80;99.90
7598;DHT22;3840;59.32098800;18.06423600;2023-01-08T08:30:31;3.90;99.90
7598;DHT22;3840;59.32098800;18.06423600;2023-01-08T08:32:59;3.90;99.90
7598;DHT22;3840;59.32098800;18.06423600;2023-01-08T08:35:26;3.90;99.90
7598;DHT22;3840;59.32098800;18.06423600;2023-01-08T08:37:53;3.90;99.90
7598;DHT22;3840;59.32098800;18.06423600;2023-01-08T08:40:19;3.90;99.90
7598;DHT22;3840;59.32098800;18.06423600;2023-01-08T08:42:45;4.00;99.90
7598;DHT22;3840;59.32098800;18.06423600;2023-01-08T08:45:11;4.00;99.90
7598;DHT22;3840;59.32098800;18.06423600;2023-01-08T08:47:36;4.10;99.90
7598;DHT22;3840;59.32098800;18.06423600;2023-01-08T08:50:04;4.10;99.90
7598;DHT22;3840;59.32098800;18.06423600;2023-01-08T08:52:31;4.10;99.90
7598;DHT22;3840;59.32098800;18.06423600;2023-01-08T08:54:57;4.10;99.90
7598;DHT22;3840;59.32098800;18.06423600;2023-01-08T08:57:23;4.10;99.90
7598;DHT22;3840;59.32098800;18.06423600;2023-01-08T08:59:49;4.10;99.90
7598;DHT22;3840;59.32098800;18.06423600;2023-01-08T09:02:15;4.20;99.90
7598;DHT22;3840;59.32098800;18.06423600;2023-01-08T09:04:40;4.20;99.90
7598;DHT22;3840;59.32098800;18.06423600;2023-01-08T09:07:06;4.20;99.90
7598;DHT22;3840;59.32098800;18.06423600;2023-01-08T09:09:32;4.20;99.90
7598;DHT22;3840;59.32098800;18.06423600;2023-01-08T09:11:57;4.20;99.90
7598;DHT22;3840;59.32098800;18.06423600;2023-01-08T09:14:23;4.30;99.90
7598;DHT22;3840;59.32098800;18.06423600;2023-01-08T09:16:49;4.30;99.90
7598;DHT22;3840;59.32098800;18.06423600;2023-01-08T09:19:15;4.30;99.90
7598;DHT22;3840;59.32098800;18.06423600;2023-01-08T09:21:41;4.40;99.90
7598;DHT22;3840;59.32098800;18.06423600;2023-01-08T09:24:07;4.40;99.90
7598;DHT22;3840;59.32098800;18.06423600;2023-01-08T09:26:33;4.40;99.90
7598;DHT22;3840;59.32098800;18.06423600;2023-01-08T09:28:59;4.40;99.90
7598;DHT22;3840;59.32098800;18.06423600;2023-01-08T09:31:25;4.40;99.90
7598;DHT22;3840;59.32098800;18.06423600;2023-01-08T09:33:51;4.40;99.90
7598;DHT22;3840;59.32098800;18.06423600;2023-01-08T09:36:17;4.40;99.90
7598;DHT22;3840;59.32098800;18.06423600;2023-01-08T09:38:43;4.40;99.90
7598;DHT22;3840;59.32098800;18.06423600;2023-01-08T09:41:15;4.40;99.90
7598;DHT22;3840;59.32098800;18.06423600;2023-01-08T09:43:44;4.40;99.90
7598;DHT22;3840;59.32098800;18.06423600;2023-01-08T09:46:11;4.40;99.90
7598;DHT22;3840;59.32098800;18.06423600;2023-01-08T09:48:40;4.50;99.90
7598;DHT22;3840;59.32098800;18.06423600;2023-01-08T09:51:11;4.50;99.90
7598;DHT22;3840;59.32098800;18.06423600;2023-01-08T09:53:37;4.50;99.90
7598;DHT22;3840;59.32098800;18.06423600;2023-01-08T09:56:10;4.50;99.90
7598;DHT22;3840;59.32098800;18.06423600;2023-01-08T09:58:39;4.50;99.90
7598;DHT22;3840;59.32098800;18.06423600;2023-01-08T10:01:06;4.50;99.90
7598;DHT22;3840;59.32098800;18.06423600;2023-01-08T10:06:14;4.50;99.90
7598;DHT22;3840;59.32098800;18.06423600;2023-01-08T10:08:40;4.50;99.90
7598;DHT22;3840;59.32098800;18.06423600;2023-01-08T10:11:07;4.50;99.90
7598;DHT22;3840;59.32098800;18.06423600;2023-01-08T10:13:36;4.50;99.90
7598;DHT22;3840;59.32098800;18.06423600;2023-01-08T10:16:08;4.50;99.90
7598;DHT22;3840;59.32098800;18.06423600;2023-01-08T10:18:36;4.50;99.90
7598;DHT22;3840;59.32098800;18.06423600;2023-01-08T10:21:03;4.50;99.90
7598;DHT22;3840;59.32098800;18.06423600;2023-01-08T10:23:28;4.50;99.90
7598;DHT22;3840;59.32098800;18.06423600;2023-01-08T10:25:59;4.40;99.90
7598;DHT22;3840;59.32098800;18.06423600;2023-01-08T10:28:30;4.50;99.90
7598;DHT22;3840;59.32098800;18.06423600;2023-01-08T10:31:05;4.50;99.90
7598;DHT22;3840;59.32098800;18.06423600;2023-01-08T10:33:41;4.40;99.90
7598;DHT22;3840;59.32098800;18.06423600;2023-01-08T10:36:11;4.50;99.90
7598;DHT22;3840;59.32098800;18.06423600;2023-01-08T10:38:50;4.50;99.90
7598;DHT22;3840;59.32098800;18.06423600;2023-01-08T10:41:17;4.50;99.90
7598;DHT22;3840;59.32098800;18.06423600;2023-01-08T10:43:54;4.50;99.90
7598;DHT22;3840;59.32098800;18.06423600;2023-01-08T10:48:53;4.50;99.90
7598;DHT22;3840;59.32098800;18.06423600;2023-01-08T10:51:22;4.50;99.90
7598;DHT22;3840;59.32098800;18.06423600;2023-01-08T10:53:48;4.50;99.90
7598;DHT22;3840;59.32098800;18.06423600;2023-01-08T10:56:20;4.50;99.90
7598;DHT22;3840;59.32098800;18.06423600;2023-01-08T10:58:46;4.50;99.90
7598;DHT22;3840;59.32098800;18.06423600;2023-01-08T11:01:26;4.50;99.90
7598;DHT22;3840;59.32098800;18.06423600;2023-01-08T11:03:56;4.50;99.90
7598;DHT22;3840;59.32098800;18.06423600;2023-01-08T11:06:27;4.50;99.90
7598;DHT22;3840;59.32098800;18.06423600;2023-01-08T11:08:59;4.50;99.90
7598;DHT22;3840;59.32098800;18.06423600;2023-01-08T11:11:36;4.50;99.90
7598;DHT22;3840;59.32098800;18.06423600;2023-01-08T11:14:05;4.50;99.90
7598;DHT22;3840;59.32098800;18.06423600;2023-01-08T11:16:39;4.60;99.90
7598;DHT22;3840;59.32098800;18.06423600;2023-01-08T11:19:16;4.50;99.90
7598;DHT22;3840;59.32098800;18.06423600;2023-01-08T11:21:54;4.50;99.90
7598;DHT22;3840;59.32098800;18.06423600;2023-01-08T11:24:34;4.50;99.90
7598;DHT22;3840;59.32098800;18.06423600;2023-01-08T11:35:28;4.50;99.90
7598;DHT22;3840;59.32098800;18.06423600;2023-01-08T11:38:00;4.50;99.90
7598;DHT22;3840;59.32098800;18.06423600;2023-01-08T11:43:23;4.50;99.90
7598;DHT22;3840;59.32098800;18.06423600;2023-01-08T11:49:13;4.50;99.90
7598;DHT22;3840;59.32098800;18.06423600;2023-01-08T11:51:57;4.50;99.90
7598;DHT22;3840;59.32098800;18.06423600;2023-01-08T12:01:03;4.50;99.90
7598;DHT22;3840;59.32098800;18.06423600;2023-01-08T12:09:00;4.50;99.90
7598;DHT22;3840;59.32098800;18.06423600;2023-01-08T12:11:30;4.50;99.90
7598;DHT22;3840;59.32098800;18.06423600;2023-01-08T12:22:35;4.60;99.90
7598;DHT22;3840;59.32098800;18.06423600;2023-01-08T12:36:36;4.60;99.90
7598;DHT22;3840;59.32098800;18.06423600;2023-01-08T12:39:11;4.60;99.90
7598;DHT22;3840;59.32098800;18.06423600;2023-01-08T12:41:38;4.60;99.90
7598;DHT22;3840;59.32098800;18.06423600;2023-01-08T12:44:08;4.60;99.90
7598;DHT22;3840;59.32098800;18.06423600;2023-01-08T12:46:38;4.60;99.90
7598;DHT22;3840;59.32098800;18.06423600;2023-01-08T12:49:09;4.80;99.90
7598;DHT22;3840;59.32098800;18.06423600;2023-01-08T12:54:25;4.70;99.90
7598;DHT22;3840;59.32098800;18.06423600;2023-01-08T12:59:38;4.60;99.90
7598;DHT22;3840;59.32098800;18.06423600;2023-01-08T13:02:34;4.70;99.90
7598;DHT22;3840;59.32098800;18.06423600;2023-01-08T13:05:27;4.60;99.90
7598;DHT22;3840;59.32098800;18.06423600;2023-01-08T13:07:57;4.60;99.90
7598;DHT22;3840;59.32098800;18.06423600;2023-01-08T13:12:57;4.60;99.90
7598;DHT22;3840;59.32098800;18.06423600;2023-01-08T13:15:25;4.60;99.90
7598;DHT22;3840;59.32098800;18.06423600;2023-01-08T13:18:01;4.70;99.90
7598;DHT22;3840;59.32098800;18.06423600;2023-01-08T13:20:31;4.60;99.90
7598;DHT22;3840;59.32098800;18.06423600;2023-01-08T13:22:59;4.60;99.90
7598;DHT22;3840;59.32098800;18.06423600;2023-01-08T13:25:29;4.60;99.90
7598;DHT22;3840;59.32098800;18.06423600;2023-01-08T13:27:55;4.60;99.90
7598;DHT22;3840;59.32098800;18.06423600;2023-01-08T13:30:38;4.60;99.90
7598;DHT22;3840;59.32098800;18.06423600;2023-01-08T13:33:35;4.60;99.90
7598;DHT22;3840;59.32098800;18.06423600;2023-01-08T13:36:16;4.60;99.90
7598;DHT22;3840;59.32098800;18.06423600;2023-01-08T13:38:43;4.60;99.90
7598;DHT22;3840;59.32098800;18.06423600;2023-01-08T13:42:14;4.60;99.90
7598;DHT22;3840;59.32098800;18.06423600;2023-01-08T13:44:16;4.60;99.90
7598;DHT22;3840;59.32098800;18.06423600;2023-01-08T13:46:53;4.60;99.90
7598;DHT22;3840;59.32098800;18.06423600;2023-01-08T13:49:40;4.60;99.90
7598;DHT22;3840;59.32098800;18.06423600;2023-01-08T13:54:54;4.60;99.90
7598;DHT22;3840;59.32098800;18.06423600;2023-01-08T13:57:20;4.60;99.90
7598;DHT22;3840;59.32098800;18.06423600;2023-01-08T14:00:08;4.30;99.90
7598;DHT22;3840;59.32098800;18.06423600;2023-01-08T14:02:44;4.60;99.90
7598;DHT22;3840;59.32098800;18.06423600;2023-01-08T14:07:51;4.60;99.90
7598;DHT22;3840;59.32098800;18.06423600;2023-01-08T14:10:17;4.60;99.90
7598;DHT22;3840;59.32098800;18.06423600;2023-01-08T14:12:43;4.60;99.90
7598;DHT22;3840;59.32098800;18.06423600;2023-01-08T14:15:26;4.60;99.90
7598;DHT22;3840;59.32098800;18.06423600;2023-01-08T14:17:54;4.50;99.90
7598;DHT22;3840;59.32098800;18.06423600;2023-01-08T14:20:35;4.50;99.90
7598;DHT22;3840;59.32098800;18.06423600;2023-01-08T14:23:06;4.50;99.90
7598;DHT22;3840;59.32098800;18.06423600;2023-01-08T14:25:33;4.50;99.90
7598;DHT22;3840;59.32098800;18.06423600;2023-01-08T14:28:04;4.50;99.90
7598;DHT22;3840;59.32098800;18.06423600;2023-01-08T14:30:30;4.50;99.90
7598;DHT22;3840;59.32098800;18.06423600;2023-01-08T14:32:56;4.50;99.90
7598;DHT22;3840;59.32098800;18.06423600;2023-01-08T14:35:28;4.50;99.90
7598;DHT22;3840;59.32098800;18.06423600;2023-01-08T14:37:56;4.40;99.90
7598;DHT22;3840;59.32098800;18.06423600;2023-01-08T14:40:35;4.40;99.90
7598;DHT22;3840;59.32098800;18.06423600;2023-01-08T14:43:07;4.40;99.90
7598;DHT22;3840;59.32098800;18.06423600;2023-01-08T14:45:33;4.40;99.90
7598;DHT22;3840;59.32098800;18.06423600;2023-01-08T14:48:11;4.40;99.90
7598;DHT22;3840;59.32098800;18.06423600;2023-01-08T14:50:41;4.40;99.90
7598;DHT22;3840;59.32098800;18.06423600;2023-01-08T14:56:35;4.40;99.90
7598;DHT22;3840;59.32098800;18.06423600;2023-01-08T14:59:07;4.40;99.90
7598;DHT22;3840;59.32098800;18.06423600;2023-01-08T15:01:34;4.40;99.90
7598;DHT22;3840;59.32098800;18.06423600;2023-01-08T15:04:27;4.40;99.90
7598;DHT22;3840;59.32098800;18.06423600;2023-01-08T15:07:08;4.40;99.90
7598;DHT22;3840;59.32098800;18.06423600;2023-01-08T15:09:40;4.40;99.90
7598;DHT22;3840;59.32098800;18.06423600;2023-01-08T15:12:21;4.40;99.90
7598;DHT22;3840;59.32098800;18.06423600;2023-01-08T15:14:47;4.40;99.90
7598;DHT22;3840;59.32098800;18.06423600;2023-01-08T15:17:17;4.40;99.90
7598;DHT22;3840;59.32098800;18.06423600;2023-01-08T15:19:49;4.40;99.90
7598;DHT22;3840;59.32098800;18.06423600;2023-01-08T15:22:19;4.40;99.90